Time;durP1;ratioP1;P1;durP2;ratioP2;P2;SDS_P1;SDS_P2;PMS_P1;PMS_P2;Temp;Humidity;BMP_temperature;BMP_pressure;BME280_temperature;BME280_humidity;BME280_pressure;Samples;Min_cycle;Max_cycle;Signal;HPM_P1;HPM_P2
2022/12/01 00:01:18;;;;;;;5.00;3.23;;;;;;;7.01;84.45;97377.44;5067485;28;20207;-81
2022/12/01 00:03:46;;;;;;;4.70;3.07;;;;;;;7.20;84.63;97394.13;5065769;28;20191;-82
2022/12/01 00:06:15;;;;;;;3.67;3.07;;;;;;;7.26;84.97;97399.09;5067625;28;20212;-81
2022/12/01 00:11:29;;;;;;;3.20;2.70;;;;;;;7.25;83.98;97389.69;5066953;28;20223;-81
2022/12/01 00:13:56;;;;;;;3.07;2.67;;;;;;;7.16;84.63;97392.50;5076275;28;20197;-83
2022/12/01 00:16:23;;;;;;;2.87;2.47;;;;;;;7.20;83.32;97401.84;5086087;28;20586;-82
2022/12/01 00:18:51;;;;;;;3.17;2.20;;;;;;;7.03;83.83;97383.41;5087502;28;20203;-82
2022/12/01 00:21:23;;;;;;;3.17;2.40;;;;;;;7.19;83.93;97397.59;5067629;28;20280;-81
2022/12/01 00:23:52;;;;;;;2.70;2.20;;;;;;;6.91;84.33;97394.03;5087417;28;20199;-82
2022/12/01 00:26:20;;;;;;;3.60;2.30;;;;;;;6.94;84.94;97396.53;5085877;28;20272;-79
2022/12/01 00:28:48;;;;;;;5.20;2.70;;;;;;;7.03;85.14;97391.97;5087062;28;20307;-82
2022/12/01 00:31:15;;;;;;;4.10;2.63;;;;;;;6.95;85.89;97369.88;5086935;28;20258;-82
2022/12/01 00:33:42;;;;;;;3.53;2.80;;;;;;;7.09;85.34;97391.00;5086215;28;20649;-82
2022/12/01 00:36:09;;;;;;;3.43;2.43;;;;;;;6.87;85.98;97349.50;5087396;28;20238;-82
2022/12/01 00:38:37;;;;;;;3.37;2.57;;;;;;;6.91;86.68;97376.84;5085717;28;20712;-84
2022/12/01 00:41:04;;;;;;;3.00;2.33;;;;;;;6.87;86.37;97389.84;5087438;28;20625;-81
2022/12/01 00:43:31;;;;;;;2.50;2.10;;;;;;;6.85;86.08;97387.31;5085435;28;20189;-82
2022/12/01 00:45:58;;;;;;;3.00;2.50;;;;;;;6.92;85.99;97383.72;5087434;28;20647;-80
2022/12/01 00:48:25;;;;;;;4.13;2.90;;;;;;;6.92;86.29;97373.41;5086635;28;20197;-82
2022/12/01 00:50:53;;;;;;;4.47;2.57;;;;;;;6.91;86.27;97363.13;5087054;28;20228;-80
2022/12/01 00:53:21;;;;;;;4.33;3.30;;;;;;;6.88;85.18;97360.66;5087075;28;20202;-80
2022/12/01 00:55:49;;;;;;;3.93;3.17;;;;;;;6.92;86.06;97370.84;5085354;28;20732;-79
2022/12/01 00:58:15;;;;;;;3.60;3.00;;;;;;;6.95;84.98;97362.16;5087061;28;20231;-82
2022/12/01 01:00:42;;;;;;;3.10;2.80;;;;;;;6.94;85.98;97360.50;5085463;28;20651;-81
2022/12/01 01:03:10;;;;;;;5.30;3.33;;;;;;;6.78;85.73;97343.78;5087269;28;20193;-82
2022/12/01 01:05:39;;;;;;;3.73;2.73;;;;;;;6.95;85.37;97362.16;5086683;28;20235;-84
2022/12/01 01:08:07;;;;;;;2.90;2.53;;;;;;;6.87;86.13;97351.22;5089982;28;20195;-83
2022/12/01 01:10:39;;;;;;;4.40;2.90;;;;;;;6.65;86.16;97314.09;5090445;28;20740;-83
2022/12/01 01:13:06;;;;;;;3.90;2.83;;;;;;;6.88;87.23;97355.50;5088806;28;20207;-82
2022/12/01 01:15:33;;;;;;;3.03;2.30;;;;;;;6.87;86.62;97341.78;5090492;28;20590;-83
2022/12/01 01:18:01;;;;;;;2.50;1.87;;;;;;;6.89;87.00;97357.19;5089298;28;20584;-83
2022/12/01 01:20:28;;;;;;;3.93;1.83;;;;;;;6.59;86.51;97322.81;5090603;28;20215;-82
2022/12/01 01:22:55;;;;;;;3.50;2.10;;;;;;;6.84;87.01;97348.75;5089221;28;20324;-83
2022/12/01 01:25:23;;;;;;;4.00;1.93;;;;;;;6.76;86.97;97350.69;5071547;28;20292;-83
2022/12/01 01:27:50;;;;;;;4.83;1.70;;;;;;;6.56;87.97;97341.75;5071894;28;20183;-83
2022/12/01 01:30:18;;;;;;;3.13;1.60;;;;;;;6.59;87.96;97338.25;5088964;28;20219;-84
2022/12/01 01:32:46;;;;;;;2.23;1.73;;;;;;;6.52;87.96;97337.56;5090409;28;20192;-82
2022/12/01 01:35:13;;;;;;;1.90;1.70;;;;;;;6.39;87.58;97320.72;5088716;28;20197;-83
2022/12/01 01:37:40;;;;;;;2.53;1.90;;;;;;;6.69;87.93;97336.28;5090037;28;20802;-83
2022/12/01 01:40:07;;;;;;;1.93;1.73;;;;;;;6.67;89.03;97343.19;5088594;28;20593;-83
2022/12/01 01:42:34;;;;;;;2.90;2.07;;;;;;;6.44;88.54;97324.03;5089977;28;20257;-84
2022/12/01 01:45:01;;;;;;;2.83;1.70;;;;;;;6.44;88.90;97308.59;5089650;28;20187;-84
2022/12/01 01:47:35;;;;;;;2.33;1.87;;;;;;;6.66;89.27;97326.91;5072835;28;20202;-83
2022/12/01 01:50:14;;;;;;;2.00;1.70;;;;;;;6.80;88.36;97336.84;5090079;28;20187;-82
2022/12/01 01:52:49;;;;;;;2.00;1.80;;;;;;;6.65;88.32;97332.09;5088424;28;20192;-84
2022/12/01 01:55:16;;;;;;;2.37;1.83;;;;;;;6.46;89.21;97316.28;5089907;28;20745;-82
2022/12/01 01:57:45;;;;;;;2.63;2.00;;;;;;;6.61;88.66;97327.91;5088660;28;20187;-82
2022/12/01 02:00:15;;;;;;;1.93;1.60;;;;;;;6.43;88.29;97311.19;5089071;28;20186;-83
2022/12/01 02:02:44;;;;;;;2.10;1.90;;;;;;;6.64;88.57;97332.97;5089798;28;20234;-84
2022/12/01 02:05:33;;;;;;;2.90;1.80;;;;;;;6.43;89.67;97317.19;5088432;28;20184;-84
2022/12/01 02:08:02;;;;;;;2.20;2.00;;;;;;;6.64;88.55;97326.09;5089447;28;20192;-82
2022/12/01 02:11:09;;;;;;;4.73;2.37;;;;;;;6.57;89.31;97325.41;5088314;28;20194;-82
2022/12/01 02:14:05;;;;;;;2.00;1.73;;;;;;;6.64;88.65;97325.25;5051041;28;20381;-80
2022/12/01 02:16:59;;;;;;;2.73;1.73;;;;;;;6.39;89.40;97325.88;5089461;28;20200;-80
2022/12/01 02:20:05;;;;;;;2.37;1.50;;;;;;;6.47;89.14;97318.81;5088337;28;20725;-81
2022/12/01 02:22:50;;;;;;;2.80;1.93;;;;;;;6.43;89.28;97321.47;5074077;28;20232;-81
2022/12/01 02:25:41;;;;;;;3.13;2.23;;;;;;;6.40;90.17;97326.72;5089268;28;20208;-81
2022/12/01 02:28:49;;;;;;;3.63;2.40;;;;;;;6.27;89.27;97318.47;5088586;28;20201;-82
2022/12/01 02:31:29;;;;;;;3.63;2.30;;;;;;;6.21;89.77;97295.47;5087185;28;20194;-80
2022/12/01 02:34:09;;;;;;;2.93;2.13;;;;;;;6.57;88.53;97322.81;5088912;28;20203;-80
2022/12/01 02:36:49;;;;;;;2.27;2.00;;;;;;;6.31;88.31;97284.06;5088202;28;20266;-81
2022/12/01 02:39:35;;;;;;;2.47;2.27;;;;;;;6.54;88.75;97307.47;5089453;28;20212;-81
2022/12/01 02:45:32;;;;;;;2.13;1.93;;;;;;;6.45;88.46;97324.91;5088035;28;20259;-81
2022/12/01 02:48:01;;;;;;;2.60;2.00;;;;;;;6.53;87.86;97310.09;5087864;28;20277;-82
2022/12/01 02:50:32;;;;;;;2.13;1.70;;;;;;;6.17;87.59;97257.88;5053750;28;20641;-82
2022/12/01 02:53:01;;;;;;;2.93;2.33;;;;;;;6.02;88.39;97257.41;5069299;28;20601;-82
2022/12/01 02:55:28;;;;;;;2.33;2.07;;;;;;;6.08;88.83;97288.09;5088658;28;20188;-81
2022/12/01 02:57:55;;;;;;;2.60;1.97;;;;;;;6.14;89.64;97300.81;5086940;28;20770;-82
2022/12/01 03:00:22;;;;;;;2.00;1.80;;;;;;;5.79;88.16;97281.88;5087944;28;20208;-82
2022/12/01 03:03:25;;;;;;;1.70;1.50;;;;;;;5.97;88.92;97285.78;5087555;28;20359;-81
2022/12/01 03:06:02;;;;;;;1.97;1.50;;;;;;;6.05;88.35;97277.88;5085760;28;20269;-81
2022/12/01 03:08:44;;;;;;;3.67;2.30;;;;;;;5.92;88.56;97290.19;5088337;28;20758;-82
2022/12/01 03:11:25;;;;;;;2.47;1.83;;;;;;;5.84;89.62;97279.25;5086967;28;20189;-80
2022/12/01 03:14:15;;;;;;;2.43;2.10;;;;;;;6.06;90.84;97282.97;5069657;28;20284;-81
2022/12/01 03:16:48;;;;;;;2.43;2.20;;;;;;;6.23;88.98;97291.13;5088139;28;20213;-81
2022/12/01 03:19:50;;;;;;;2.23;2.00;;;;;;;6.18;88.71;97287.81;5086872;28;20187;-81
2022/12/01 03:22:30;;;;;;;2.57;1.83;;;;;;;6.34;89.20;97286.56;4988587;28;20224;-82
2022/12/01 03:25:01;;;;;;;3.77;2.60;;;;;;;6.27;88.31;97258.47;5081715;28;20194;-83
2022/12/01 03:27:36;;;;;;;2.80;2.00;;;;;;;6.39;87.71;97255.56;5089161;28;20273;-82
2022/12/01 03:30:09;;;;;;;3.00;2.27;;;;;;;6.33;88.60;97250.59;5088593;28;20644;-82
2022/12/01 03:32:47;;;;;;;2.57;1.90;;;;;;;6.56;88.41;97274.84;5087076;28;20746;-83
2022/12/01 03:35:27;;;;;;;3.93;3.13;;;;;;;6.51;86.95;97294.69;5088603;28;20299;-82
2022/12/01 03:38:00;;;;;;;4.00;3.00;;;;;;;6.34;86.81;97281.44;5088024;28;20211;-82
2022/12/01 03:40:29;;;;;;;2.83;2.47;;;;;;;6.38;86.20;97288.19;5089142;28;20219;-81
2022/12/01 03:43:06;;;;;;;2.60;2.40;;;;;;;6.48;86.64;97294.78;5087820;28;20307;-81
2022/12/01 03:45:45;;;;;;;3.43;2.87;;;;;;;6.39;85.44;97278.72;5086173;28;20205;-82
2022/12/01 03:48:12;;;;;;;2.73;2.20;;;;;;;6.17;85.72;97270.72;5087765;28;20622;-82
2022/12/01 03:50:55;;;;;;;3.63;2.07;;;;;;;6.35;85.30;97288.25;5068837;28;20222;-81
2022/12/01 03:53:26;;;;;;;2.53;1.97;;;;;;;6.25;85.72;97291.09;5086417;28;20205;-82
2022/12/01 03:56:02;;;;;;;3.60;2.73;;;;;;;6.10;86.39;97286.34;5087477;28;20194;-82
2022/12/01 03:58:34;;;;;;;2.93;2.40;;;;;;;6.14;87.35;97285.38;5085932;28;20239;-82
2022/12/01 04:01:02;;;;;;;6.63;4.27;;;;;;;5.91;86.87;97287.66;5087429;28;20201;-81
2022/12/01 04:03:30;;;;;;;10.53;5.97;;;;;;;5.88;87.71;97268.00;5086413;28;20273;-82
2022/12/01 04:05:56;;;;;;;14.13;8.73;;;;;;;6.01;87.40;97292.53;5087030;28;20281;-82
2022/12/01 04:08:24;;;;;;;15.33;10.10;;;;;;;6.12;86.80;97282.00;5087354;28;20203;-82
2022/12/01 04:10:50;;;;;;;10.77;6.23;;;;;;;6.01;86.39;97292.53;5086104;28;20191;-82
2022/12/01 04:13:26;;;;;;;10.37;6.60;;;;;;;6.21;85.95;97292.91;5087334;28;20193;-82
2022/12/01 04:15:54;;;;;;;5.53;4.47;;;;;;;6.17;85.78;97275.84;5086185;28;20661;-82
2022/12/01 04:18:21;;;;;;;4.17;3.43;;;;;;;6.13;85.68;97281.97;5087831;28;20754;-81
2022/12/01 04:20:48;;;;;;;2.30;2.10;;;;;;;6.24;85.34;97282.56;5086239;28;20190;-82
2022/12/01 04:26:03;;;;;;;3.43;2.43;;;;;;;6.26;85.38;97291.06;5087016;28;20280;-83
2022/12/01 04:28:30;;;;;;;2.67;2.30;;;;;;;6.37;85.94;97301.91;5085328;28;20205;-82
2022/12/01 04:30:58;;;;;;;2.57;2.00;;;;;;;6.22;86.79;97275.75;5086809;28;20205;-81
2022/12/01 04:33:25;;;;;;;4.07;2.50;;;;;;;6.44;85.47;97300.88;5085688;28;20274;-83
2022/12/01 04:35:58;;;;;;;2.93;2.63;;;;;;;6.45;84.63;97305.13;5087798;28;20587;-82
2022/12/01 04:38:26;;;;;;;3.27;2.80;;;;;;;6.36;84.55;97292.53;5082437;28;20284;-81
2022/12/01 04:40:57;;;;;;;3.53;2.90;;;;;;;6.45;85.32;97309.47;5077598;28;20259;-83
2022/12/01 04:43:23;;;;;;;3.10;2.60;;;;;;;6.49;85.17;97301.59;5069583;28;20226;-82
2022/12/01 04:45:50;;;;;;;5.07;3.70;;;;;;;6.38;85.96;97311.34;5089852;28;20205;-81
2022/12/01 04:48:17;;;;;;;4.43;3.67;;;;;;;6.36;85.15;97314.81;5091559;28;20202;-81
2022/12/01 04:50:47;;;;;;;5.50;4.10;;;;;;;6.26;86.13;97296.22;5072281;28;20809;-81
2022/12/01 04:53:14;;;;;;;2.33;2.13;;;;;;;6.39;85.64;97300.16;5091129;28;20223;-81
2022/12/01 04:55:41;;;;;;;3.40;2.70;;;;;;;6.39;85.30;97310.44;5090435;28;20862;-83
2022/12/01 04:58:08;;;;;;;3.07;2.40;;;;;;;6.49;85.96;97311.88;5090218;28;20653;-82
2022/12/01 05:00:36;;;;;;;2.87;2.33;;;;;;;6.45;85.80;97320.56;5091615;28;20182;-82
2022/12/01 05:03:03;;;;;;;3.37;2.67;;;;;;;6.37;85.09;97319.91;5089956;28;20237;-80
2022/12/01 05:05:31;;;;;;;5.13;3.73;;;;;;;6.36;86.39;97319.97;5079213;28;20226;-83
2022/12/01 05:07:58;;;;;;;4.07;2.63;;;;;;;6.18;85.99;97320.41;5077508;28;20679;-83
2022/12/01 05:10:26;;;;;;;3.63;2.30;;;;;;;6.03;87.93;97319.06;5087902;28;20199;-84
2022/12/01 05:12:54;;;;;;;2.80;2.33;;;;;;;6.02;86.24;97296.78;5072282;28;20227;-82
2022/12/01 05:15:20;;;;;;;4.87;3.27;;;;;;;6.03;86.72;97307.91;5090497;28;20620;-83
2022/12/01 05:17:48;;;;;;;4.80;3.80;;;;;;;6.20;86.70;97328.94;5090459;28;20182;-82
2022/12/01 05:23:06;;;;;;;3.50;2.93;;;;;;;6.06;87.23;97306.13;5072256;28;20222;-83
2022/12/01 05:25:41;;;;;;;3.13;2.40;;;;;;;6.13;87.30;97328.25;5070707;28;20202;-82
2022/12/01 05:28:10;;;;;;;4.47;2.60;;;;;;;6.19;87.38;97333.22;5090803;28;20245;-85
2022/12/01 05:30:37;;;;;;;4.40;3.20;;;;;;;5.89;87.05;97284.28;5089912;28;20258;-84
2022/12/01 05:33:04;;;;;;;3.93;2.73;;;;;;;6.13;85.85;97299.09;5089848;28;20200;-83
2022/12/01 05:35:34;;;;;;;6.00;4.87;;;;;;;6.19;85.42;97332.38;5090618;28;20189;-82
2022/12/01 05:38:01;;;;;;;5.50;4.93;;;;;;;6.09;87.01;97329.19;5088748;28;20221;-82
2022/12/01 05:40:36;;;;;;;8.10;5.90;;;;;;;6.11;86.87;97335.16;5072212;28;20225;-82
2022/12/01 05:43:03;;;;;;;5.47;4.30;;;;;;;5.93;87.56;97320.16;5089205;28;20664;-84
2022/12/01 05:45:31;;;;;;;7.33;5.33;;;;;;;5.96;87.73;97335.50;5091390;28;20186;-82
2022/12/01 05:48:00;;;;;;;7.57;5.70;;;;;;;5.88;87.36;97321.13;5071737;28;20770;-83
2022/12/01 05:50:29;;;;;;;5.63;4.70;;;;;;;6.04;87.90;97343.03;5070929;28;20194;-83
2022/12/01 05:52:56;;;;;;;6.80;5.60;;;;;;;5.89;87.87;97323.69;5071235;28;20186;-83
2022/12/01 05:55:23;;;;;;;6.93;5.37;;;;;;;5.97;86.77;97341.47;5088382;28;20182;-84
2022/12/01 05:57:54;;;;;;;6.07;4.73;;;;;;;6.05;87.47;97357.56;5089780;28;20181;-86
2022/12/01 06:00:38;;;;;;;5.03;3.80;;;;;;;5.92;87.36;97331.31;5071934;28;20917;-83
2022/12/01 06:03:12;;;;;;;4.10;3.53;;;;;;;6.11;87.80;97355.72;5090405;28;20242;-82
2022/12/01 06:05:39;;;;;;;3.87;3.17;;;;;;;6.03;85.91;97321.63;5089754;28;20190;-84
2022/12/01 06:08:07;;;;;;;5.20;3.93;;;;;;;6.13;86.23;97335.94;5070259;28;20200;-82
2022/12/01 06:10:34;;;;;;;5.60;3.90;;;;;;;6.15;85.92;97335.91;5089870;28;20190;-83
2022/12/01 06:13:06;;;;;;;6.17;4.57;;;;;;;6.29;85.63;97352.69;5089223;28;20518;-83
2022/12/01 06:15:33;;;;;;;7.77;5.07;;;;;;;6.34;86.18;97358.59;5089546;28;20763;-83
2022/12/01 06:18:01;;;;;;;5.23;4.20;;;;;;;6.35;86.48;97357.69;5088269;28;20209;-84
2022/12/01 06:20:28;;;;;;;6.60;4.97;;;;;;;6.35;86.20;97355.13;5090860;28;20619;-83
2022/12/01 06:22:55;;;;;;;7.07;5.13;;;;;;;6.31;86.35;97374.09;5089069;28;20264;-82
2022/12/01 06:25:22;;;;;;;5.20;3.97;;;;;;;6.34;86.95;97368.88;5070717;28;20225;-83
2022/12/01 06:27:48;;;;;;;5.33;4.10;;;;;;;6.43;87.41;97360.91;5088847;28;20680;-83
2022/12/01 06:30:16;;;;;;;6.90;5.00;;;;;;;6.54;85.70;97363.22;5090233;28;20210;-84
2022/12/01 06:32:43;;;;;;;8.17;5.37;;;;;;;6.46;87.07;97371.16;5092261;28;20296;-80
2022/12/01 06:35:09;;;;;;;7.67;5.60;;;;;;;6.52;86.29;97376.16;5088236;28;20193;-84
2022/12/01 06:37:38;;;;;;;5.13;3.90;;;;;;;6.34;85.94;97358.59;5089872;28;20206;-82
2022/12/01 06:40:06;;;;;;;5.67;4.40;;;;;;;6.46;86.19;97371.16;5088841;28;20726;-81
2022/12/01 06:42:32;;;;;;;6.67;4.93;;;;;;;6.29;86.45;97365.56;5088534;28;20221;-81
2022/12/01 06:44:59;;;;;;;6.03;4.50;;;;;;;6.44;86.55;97372.91;5092389;28;20252;-84
2022/12/01 06:47:26;;;;;;;5.07;3.63;;;;;;;6.38;86.03;97370.50;5070983;28;20196;-84
2022/12/01 06:49:53;;;;;;;7.47;3.60;;;;;;;6.34;86.27;97345.72;5090651;28;20188;-84
2022/12/01 06:52:20;;;;;;;4.63;3.13;;;;;;;6.32;85.63;97349.22;5070544;28;20667;-83
2022/12/01 06:54:47;;;;;;;4.97;4.40;;;;;;;6.52;86.02;97359.84;5071207;28;20659;-84
2022/12/01 06:57:15;;;;;;;4.83;3.23;;;;;;;6.55;85.39;97347.75;5070062;28;20199;-83
2022/12/01 06:59:42;;;;;;;6.57;4.90;;;;;;;6.58;84.73;97352.84;5071300;28;20263;-83
2022/12/01 07:02:10;;;;;;;7.80;5.30;;;;;;;6.64;84.49;97341.53;5070970;28;20193;-84
2022/12/01 07:04:38;;;;;;;6.53;4.20;;;;;;;6.63;84.21;97364.75;5088943;28;20237;-83
2022/12/01 07:07:05;;;;;;;5.60;4.43;;;;;;;6.54;85.00;97338.34;5071070;28;20222;-82
2022/12/01 07:09:32;;;;;;;7.47;5.00;;;;;;;6.49;84.98;97347.91;5088309;28;20201;-83
2022/12/01 07:12:00;;;;;;;6.27;4.20;;;;;;;6.42;84.65;97328.38;5090097;28;20312;-83
2022/12/01 07:14:27;;;;;;;5.43;3.73;;;;;;;6.50;84.80;97351.34;5069527;28;20198;-82
2022/12/01 07:16:54;;;;;;;4.77;4.20;;;;;;;6.54;84.37;97347.78;5072040;28;20199;-84
2022/12/01 07:19:21;;;;;;;6.07;5.47;;;;;;;6.51;84.85;97347.88;5092223;28;20193;-84
2022/12/01 07:21:48;;;;;;;6.73;5.73;;;;;;;6.45;84.40;97353.19;5073815;28;20205;-82
2022/12/01 07:24:15;;;;;;;9.50;6.03;;;;;;;6.34;85.76;97327.72;5055728;28;20234;-83
2022/12/01 07:26:43;;;;;;;7.63;5.83;;;;;;;6.52;85.29;97347.84;5087273;28;20197;-84
2022/12/01 07:29:10;;;;;;;6.60;5.10;;;;;;;6.66;85.08;97344.09;5072577;28;20193;-82
2022/12/01 07:31:38;;;;;;;9.50;6.77;;;;;;;6.53;84.22;97331.50;5093409;28;20195;-82
2022/12/01 07:34:05;;;;;;;10.13;7.37;;;;;;;6.54;84.98;97340.94;5092476;28;20264;-82
2022/12/01 07:36:32;;;;;;;12.30;7.40;;;;;;;6.43;84.59;97327.47;5088898;28;20702;-84
2022/12/01 07:39:04;;;;;;;13.73;8.53;;;;;;;6.52;85.14;97339.28;5088714;28;20194;-83
2022/12/01 07:41:31;;;;;;;4.80;4.13;;;;;;;6.71;85.17;97342.22;5088448;28;20186;-84
2022/12/01 07:43:58;;;;;;;4.77;3.57;;;;;;;6.55;84.35;97334.06;5086575;28;20212;-84
2022/12/01 07:46:27;;;;;;;5.03;4.07;;;;;;;6.55;85.61;97329.75;5088508;28;20209;-83
2022/12/01 07:48:55;;;;;;;8.13;5.83;;;;;;;6.65;84.71;97350.09;5086759;28;20849;-83
2022/12/01 07:51:23;;;;;;;6.93;5.07;;;;;;;6.73;85.75;97353.31;5095403;28;20267;-83
2022/12/01 07:53:52;;;;;;;9.90;5.97;;;;;;;6.36;87.24;97325.97;5079750;28;20861;-82
2022/12/01 07:56:21;;;;;;;7.70;5.47;;;;;;;6.53;85.35;97338.41;5092889;28;20269;-85
2022/12/01 07:58:48;;;;;;;6.10;4.90;;;;;;;6.46;85.75;97348.00;5089721;28;20313;-86
2022/12/01 08:01:21;;;;;;;6.03;4.77;;;;;;;6.56;87.31;97354.59;5088905;28;20200;-84
2022/12/01 08:03:49;;;;;;;14.07;9.07;;;;;;;6.59;87.47;97362.22;5087671;28;20732;-84
2022/12/01 08:06:17;;;;;;;8.43;6.00;;;;;;;6.31;85.76;97340.66;5085577;28;20195;-84
2022/12/01 08:08:44;;;;;;;7.33;5.10;;;;;;;6.40;86.81;97355.00;5087408;28;20194;-84
2022/12/01 08:11:15;;;;;;;8.20;4.30;;;;;;;6.49;86.90;97365.09;5067965;28;20189;-83
2022/12/01 08:13:43;;;;;;;11.93;7.40;;;;;;;6.34;87.75;97314.88;5087352;28;20265;-84
2022/12/01 08:16:13;;;;;;;5.57;3.83;;;;;;;6.50;86.27;97349.63;5092171;28;20610;-80
2022/12/01 08:18:41;;;;;;;6.33;5.30;;;;;;;6.40;86.56;97343.00;5076090;28;20184;-83
2022/12/01 08:21:11;;;;;;;10.17;7.17;;;;;;;6.57;86.85;97363.16;5092118;28;20193;-83
2022/12/01 08:23:38;;;;;;;5.00;4.17;;;;;;;6.24;86.61;97315.97;5090613;28;20636;-83
2022/12/01 08:26:08;;;;;;;3.37;2.60;;;;;;;6.36;87.59;97354.25;5092356;28;20190;-83
2022/12/01 08:28:35;;;;;;;5.63;3.93;;;;;;;6.40;85.98;97352.44;5074430;28;20285;-84
2022/12/01 08:31:13;;;;;;;6.77;4.53;;;;;;;6.48;87.11;97365.97;5059267;28;20196;-84
2022/12/01 08:33:40;;;;;;;5.00;3.90;;;;;;;6.35;86.83;97325.97;5091434;28;20192;-85
2022/12/01 08:36:07;;;;;;;6.67;5.33;;;;;;;6.60;86.35;97350.22;5071657;28;20491;-84
2022/12/01 08:38:35;;;;;;;7.83;5.13;;;;;;;6.41;86.27;97324.09;5091806;28;20244;-84
2022/12/01 08:41:03;;;;;;;5.90;4.77;;;;;;;6.56;86.17;97336.59;5071551;28;20293;-83
2022/12/01 08:43:33;;;;;;;4.73;3.87;;;;;;;6.59;86.30;97344.22;5072952;28;20313;-83
2022/12/01 08:46:20;;;;;;;6.70;5.23;;;;;;;6.52;86.56;97342.69;5090653;28;20273;-85
2022/12/01 08:48:48;;;;;;;6.47;4.47;;;;;;;6.20;87.21;97345.19;5072450;28;20206;-82
2022/12/01 08:51:17;;;;;;;7.73;5.10;;;;;;;6.41;87.66;97339.53;5091412;28;20269;-84
2022/12/01 08:53:47;;;;;;;8.70;5.40;;;;;;;6.54;87.18;97328.06;5089421;28;20253;-83
2022/12/01 08:56:17;;;;;;;6.53;4.47;;;;;;;6.52;87.27;97332.41;5090816;28;20690;-85
2022/12/01 08:58:44;;;;;;;9.33;5.97;;;;;;;6.65;87.80;97332.09;5070961;28;20229;-84
2022/12/01 09:01:13;;;;;;;8.73;6.07;;;;;;;6.50;88.33;97297.31;5090453;28;20301;-84
2022/12/01 09:03:42;;;;;;;12.23;7.20;;;;;;;6.43;86.91;97322.34;5090101;28;20735;-84
2022/12/01 09:06:14;;;;;;;10.30;7.20;;;;;;;6.57;88.33;97324.59;5090132;28;20239;-86
2022/12/01 09:08:41;;;;;;;9.40;6.80;;;;;;;6.71;88.24;97324.22;5091800;28;20291;-85
2022/12/01 09:11:15;;;;;;;12.07;7.00;;;;;;;6.66;88.17;97326.06;5092913;28;20199;-81
2022/12/01 09:13:43;;;;;;;10.43;7.43;;;;;;;6.47;88.15;97277.66;5092339;28;20206;-81
2022/12/01 09:16:15;;;;;;;9.27;6.30;;;;;;;6.49;87.99;97296.47;5091529;28;20693;-84
2022/12/01 09:18:45;;;;;;;8.63;6.03;;;;;;;6.83;86.59;97317.00;5074311;28;20217;-84
2022/12/01 09:21:15;;;;;;;10.33;6.63;;;;;;;6.85;87.58;97314.38;5090513;28;20193;-80
2022/12/01 09:23:44;;;;;;;8.23;5.20;;;;;;;6.63;86.75;97284.97;5089512;28;20589;-82
2022/12/01 09:26:17;;;;;;;7.60;5.23;;;;;;;6.70;86.08;97294.22;5091510;28;20210;-82
2022/12/01 09:28:46;;;;;;;8.33;5.73;;;;;;;6.80;86.37;97298.25;5088830;28;20201;-84
2022/12/01 09:31:17;;;;;;;8.60;5.70;;;;;;;6.83;86.85;97309.28;5090094;28;20203;-83
2022/12/01 09:33:44;;;;;;;5.87;4.43;;;;;;;6.63;87.58;97308.97;5091129;28;20186;-82
2022/12/01 09:36:12;;;;;;;13.07;8.60;;;;;;;6.72;87.62;97285.56;5090313;28;20199;-83
2022/12/01 09:38:39;;;;;;;6.77;4.40;;;;;;;6.70;86.63;97274.47;5089589;28;20188;-82
2022/12/01 09:41:14;;;;;;;7.13;5.03;;;;;;;6.77;86.51;97288.88;5089038;28;20195;-83
2022/12/01 09:43:50;;;;;;;10.33;5.80;;;;;;;6.72;86.88;97277.03;5090336;28;20225;-83
2022/12/01 09:46:24;;;;;;;10.43;5.27;;;;;;;6.98;87.20;97279.72;5070740;28;20217;-82
2022/12/01 09:48:54;;;;;;;10.93;7.40;;;;;;;6.80;87.31;97286.19;5090007;28;20314;-82
2022/12/01 09:51:23;;;;;;;7.77;5.67;;;;;;;6.75;87.56;97272.63;5088569;28;20193;-82
2022/12/01 09:53:55;;;;;;;12.53;7.43;;;;;;;6.82;87.33;97288.75;5089495;28;20265;-84
2022/12/01 09:56:29;;;;;;;13.27;7.07;;;;;;;6.85;86.67;97273.22;5090066;28;20548;-85
2022/12/01 09:59:06;;;;;;;11.73;6.97;;;;;;;6.64;87.95;97282.34;5073772;28;20648;-82
2022/12/01 10:01:35;;;;;;;11.03;6.63;;;;;;;6.80;88.06;97280.22;5091973;28;20558;-84
2022/12/01 10:04:12;;;;;;;10.07;5.60;;;;;;;6.67;87.40;97273.72;5088699;28;20250;-82
2022/12/01 10:07:00;;;;;;;10.83;7.00;;;;;;;6.56;86.98;97261.13;5090346;28;20290;-82
2022/12/01 10:09:40;;;;;;;9.20;6.60;;;;;;;6.54;87.74;97232.03;5089471;28;20593;-83
2022/12/01 10:12:21;;;;;;;8.50;6.83;;;;;;;6.60;87.33;97242.16;5069817;28;20228;-83
2022/12/01 10:14:49;;;;;;;7.50;5.33;;;;;;;6.72;88.20;97244.38;5089323;28;20201;-84
2022/12/01 10:17:31;;;;;;;8.43;6.03;;;;;;;6.87;87.37;97268.88;5088093;28;20187;-81
2022/12/01 10:20:10;;;;;;;4.83;3.27;;;;;;;6.71;86.36;97265.03;5089967;28;20197;-82
2022/12/01 10:22:55;;;;;;;5.23;3.57;;;;;;;6.48;88.35;97253.63;5089030;28;20198;-83
2022/12/01 10:25:27;;;;;;;6.37;4.40;;;;;;;6.49;86.93;97237.28;5069454;28;20244;-83
2022/12/01 10:28:19;;;;;;;6.40;4.57;;;;;;;6.72;87.93;97270.13;5091419;28;20264;-82
2022/12/01 10:30:49;;;;;;;6.00;4.80;;;;;;;6.27;88.97;97233.59;5089506;28;20200;-85
2022/12/01 10:33:23;;;;;;;7.80;5.00;;;;;;;6.60;87.85;97267.88;5090824;28;20208;-83
2022/12/01 10:35:51;;;;;;;9.80;6.80;;;;;;;6.68;87.73;97271.09;5090203;28;20201;-82
2022/12/01 10:38:26;;;;;;;9.20;6.57;;;;;;;6.49;88.47;97228.75;5087857;28;20294;-82
2022/12/01 10:40:54;;;;;;;7.57;5.87;;;;;;;6.30;88.17;97200.09;5089324;28;20182;-84
2022/12/01 10:43:45;;;;;;;7.07;4.13;;;;;;;6.61;88.76;97268.72;5087241;28;20247;-84
2022/12/01 10:46:22;;;;;;;7.33;5.23;;;;;;;6.71;88.06;97265.88;5088400;28;20645;-85
2022/12/01 10:48:59;;;;;;;3.50;3.20;;;;;;;6.53;88.21;97251.75;5088496;28;20247;-84
2022/12/01 10:51:27;;;;;;;7.60;5.30;;;;;;;6.57;89.57;97260.25;5087083;28;20245;-84
2022/12/01 10:53:59;;;;;;;6.00;5.10;;;;;;;6.46;87.98;97228.81;5088797;28;20673;-84
2022/12/01 10:56:31;;;;;;;4.97;4.07;;;;;;;6.46;88.35;97245.09;5069032;28;20208;-82
2022/12/01 10:59:03;;;;;;;6.20;4.50;;;;;;;6.24;89.28;97248.28;5088557;28;20247;-84
2022/12/01 11:01:35;;;;;;;10.40;6.20;;;;;;;6.37;89.90;97231.63;5069646;28;20285;-84
2022/12/01 11:04:20;;;;;;;6.07;4.60;;;;;;;6.52;88.95;97247.50;5087273;28;20256;-83
2022/12/01 11:06:49;;;;;;;4.73;3.90;;;;;;;6.36;89.48;97222.25;5069332;28;20197;-84
2022/12/01 11:09:24;;;;;;;5.17;3.97;;;;;;;6.27;89.00;97243.88;5086215;28;20647;-83
2022/12/01 11:12:01;;;;;;;7.27;5.70;;;;;;;6.28;88.55;97229.31;5088414;28;20200;-82
2022/12/01 11:14:51;;;;;;;7.00;5.73;;;;;;;6.41;89.30;97241.78;5087888;28;20202;-82
2022/12/01 11:17:32;;;;;;;7.93;5.67;;;;;;;6.47;89.68;97251.09;5086933;28;20187;-84
2022/12/01 11:20:23;;;;;;;6.57;5.60;;;;;;;6.43;89.27;97229.75;5070880;28;20193;-83
2022/12/01 11:22:50;;;;;;;7.00;5.03;;;;;;;6.31;90.42;97248.06;5086108;28;20217;-83
2022/12/01 11:25:22;;;;;;;7.70;5.97;;;;;;;6.41;89.58;97243.50;5087837;28;20599;-83
2022/12/01 11:27:53;;;;;;;9.40;6.90;;;;;;;6.53;90.23;97236.31;5088326;28;20669;-84
2022/12/01 11:30:26;;;;;;;10.57;7.43;;;;;;;6.57;90.54;97237.94;5086632;28;20700;-83
2022/12/01 11:33:02;;;;;;;12.43;7.13;;;;;;;6.54;88.88;97227.72;5088252;28;20766;-82
2022/12/01 11:35:36;;;;;;;5.80;5.00;;;;;;;6.54;89.68;97237.19;5088486;28;20217;-82
2022/12/01 11:38:05;;;;;;;3.87;3.47;;;;;;;5.90;90.21;97226.84;5069919;28;20288;-82
2022/12/01 11:40:56;;;;;;;5.73;4.60;;;;;;;6.05;91.45;97224.75;5087411;28;20243;-84
2022/12/01 11:43:28;;;;;;;6.50;5.50;;;;;;;6.35;90.82;97231.66;5068121;28;20197;-83
2022/12/01 11:46:08;;;;;;;7.03;5.23;;;;;;;6.47;90.75;97233.91;5087781;28;20189;-82
2022/12/01 11:48:35;;;;;;;9.10;7.07;;;;;;;6.45;91.14;97220.25;5086497;28;20185;-83
2022/12/01 11:51:05;;;;;;;7.27;5.63;;;;;;;6.72;90.84;97238.44;5070143;28;20229;-83
2022/12/01 11:53:40;;;;;;;6.30;4.77;;;;;;;6.46;89.98;97215.97;5051733;28;20190;-83
2022/12/01 11:56:27;;;;;;;6.97;4.57;;;;;;;6.48;89.57;97235.63;5086575;28;20200;-82
2022/12/01 11:59:05;;;;;;;6.37;5.70;;;;;;;6.69;89.74;97246.22;5069315;28;20221;-84
2022/12/01 12:01:52;;;;;;;8.63;6.70;;;;;;;6.53;90.01;97240.66;5067792;28;20197;-83
2022/12/01 12:04:31;;;;;;;12.60;8.23;;;;;;;6.61;90.27;97245.56;5087373;28;20292;-83
2022/12/01 12:07:19;;;;;;;11.43;9.67;;;;;;;6.70;90.51;97240.19;5087319;28;20216;-80
2022/12/01 12:09:49;;;;;;;13.30;9.60;;;;;;;6.73;89.34;97232.38;5067451;28;20296;-82
2022/12/01 12:12:28;;;;;;;10.27;7.30;;;;;;;6.35;89.97;97205.09;5069004;28;20202;-83
2022/12/01 12:14:55;;;;;;;8.37;5.30;;;;;;;6.50;90.34;97230.44;5085757;28;20220;-82